createdAt,value
2022-10-09T00:01:52.196Z,16.70
2022-10-09T00:04:21.688Z,16.80
2022-10-09T00:06:51.125Z,16.80
2022-10-09T00:09:20.777Z,16.70
2022-10-09T00:11:50.208Z,16.70
2022-10-09T00:14:19.653Z,16.80
2022-10-09T00:16:49.155Z,16.70
2022-10-09T00:19:18.677Z,16.70
2022-10-09T00:21:48.109Z,16.70
2022-10-09T00:24:17.571Z,16.70
2022-10-09T00:26:48.739Z,16.60
2022-10-09T00:29:19.080Z,16.70
2022-10-09T00:31:50.987Z,16.60
2022-10-09T00:34:21.215Z,16.60
2022-10-09T00:36:50.639Z,16.60
2022-10-09T00:39:20.115Z,16.50
2022-10-09T00:41:49.530Z,16.50
2022-10-09T00:44:52.272Z,16.50
2022-10-09T00:47:42.584Z,16.60
2022-10-09T00:50:26.966Z,16.60
2022-10-09T00:53:00.034Z,15.90
2022-10-09T00:55:29.863Z,15.80
2022-10-09T00:58:02.425Z,15.90
2022-10-09T01:00:31.968Z,16.00
2022-10-09T01:03:01.475Z,16.20
2022-10-09T01:05:46.071Z,16.20
2022-10-09T01:08:24.440Z,16.20
2022-10-09T01:10:59.750Z,16.20
2022-10-09T01:13:54.868Z,16.30
2022-10-09T01:16:28.099Z,16.30
2022-10-09T01:19:00.609Z,16.20
2022-10-09T01:21:36.253Z,16.30
2022-10-09T01:24:36.111Z,16.20
2022-10-09T01:27:16.610Z,16.20
2022-10-09T01:29:51.793Z,16.20
2022-10-09T01:32:24.351Z,16.20
2022-10-09T01:34:54.365Z,16.20
2022-10-09T01:37:24.144Z,16.20
2022-10-09T01:39:52.877Z,16.20
2022-10-09T01:42:22.904Z,16.10
2022-10-09T01:44:52.396Z,16.10
2022-10-09T01:47:24.045Z,16.10
2022-10-09T01:49:59.540Z,16.00
2022-10-09T01:52:45.088Z,16.00
2022-10-09T01:55:20.550Z,16.00
2022-10-09T01:57:58.725Z,16.00
2022-10-09T02:00:30.689Z,15.90
2022-10-09T02:03:01.016Z,15.80
2022-10-09T02:05:32.286Z,15.90
2022-10-09T02:08:02.780Z,15.90
2022-10-09T02:10:34.862Z,15.90
2022-10-09T02:13:05.040Z,15.80
2022-10-09T02:15:37.561Z,15.70
2022-10-09T02:18:12.689Z,15.60
2022-10-09T02:20:45.415Z,15.80
2022-10-09T02:25:40.475Z,15.60
2022-10-09T02:28:11.926Z,15.70
2022-10-09T02:30:51.321Z,15.70
2022-10-09T02:33:23.901Z,15.70
2022-10-09T02:35:53.399Z,15.70
2022-10-09T02:38:22.903Z,15.70
2022-10-09T02:40:52.392Z,15.60
2022-10-09T02:43:21.840Z,15.60
2022-10-09T02:45:51.272Z,15.50
2022-10-09T02:48:20.987Z,15.50
2022-10-09T02:50:50.419Z,15.50
2022-10-09T02:53:19.870Z,15.40
2022-10-09T02:55:49.319Z,15.40
2022-10-09T02:58:18.755Z,15.40
2022-10-09T03:00:52.503Z,15.30
2022-10-09T03:03:22.012Z,15.50
2022-10-09T03:06:02.656Z,15.50
2022-10-09T03:08:32.665Z,15.50
2022-10-09T03:11:02.130Z,15.50
2022-10-09T03:13:32.667Z,15.40
2022-10-09T03:16:14.339Z,15.50
2022-10-09T03:18:44.108Z,15.40
2022-10-09T03:21:16.314Z,15.20
2022-10-09T03:23:46.165Z,14.90
2022-10-09T03:26:19.000Z,14.70
2022-10-09T03:28:50.319Z,14.60
2022-10-09T03:31:46.860Z,14.70
2022-10-09T03:33:52.819Z,14.50
2022-10-09T03:36:23.961Z,14.40
2022-10-09T03:38:53.575Z,14.30
2022-10-09T03:41:22.984Z,14.30
2022-10-09T03:43:52.424Z,14.50
2022-10-09T03:46:21.938Z,14.70
2022-10-09T03:48:51.419Z,14.90
2022-10-09T03:51:20.850Z,15.00
2022-10-09T03:53:50.833Z,15.00
2022-10-09T03:56:20.252Z,15.10
2022-10-09T03:58:49.700Z,15.10
2022-10-09T04:01:19.260Z,15.10
2022-10-09T04:03:48.698Z,15.10
2022-10-09T04:06:18.123Z,15.10
2022-10-09T04:08:47.607Z,15.10
2022-10-09T04:11:17.115Z,15.10
2022-10-09T04:13:46.694Z,15.00
2022-10-09T04:16:16.241Z,15.10
2022-10-09T04:18:47.735Z,15.10
2022-10-09T04:21:17.233Z,15.10
2022-10-09T04:23:46.661Z,15.00
2022-10-09T04:26:16.088Z,15.00
2022-10-09T04:28:45.862Z,14.90
2022-10-09T04:31:15.379Z,14.90
2022-10-09T04:33:44.914Z,14.90
2022-10-09T04:36:14.340Z,14.90
2022-10-09T04:38:43.779Z,14.90
2022-10-09T04:41:13.933Z,14.90
2022-10-09T04:43:43.355Z,14.90
2022-10-09T04:46:14.944Z,14.70
2022-10-09T04:48:46.613Z,14.80
2022-10-09T04:51:18.186Z,14.70
2022-10-09T04:53:47.792Z,14.70
2022-10-09T04:56:20.133Z,14.80
2022-10-09T04:58:51.018Z,14.70
2022-10-09T05:01:23.847Z,14.80
2022-10-09T05:03:54.054Z,14.80
2022-10-09T05:06:24.739Z,14.70
2022-10-09T05:08:55.131Z,14.70
2022-10-09T05:11:26.188Z,14.70
2022-10-09T05:13:57.512Z,14.20
2022-10-09T05:16:29.730Z,14.10
2022-10-09T05:18:59.269Z,14.30
2022-10-09T05:21:30.059Z,14.40
2022-10-09T05:23:59.545Z,14.40
2022-10-09T05:26:29.767Z,14.40
2022-10-09T05:28:59.272Z,14.40
2022-10-09T05:31:30.690Z,14.40
2022-10-09T05:34:01.805Z,14.40
2022-10-09T05:36:31.475Z,14.40
2022-10-09T05:39:04.012Z,14.30
2022-10-09T05:41:33.490Z,14.30
2022-10-09T05:44:04.533Z,14.40
2022-10-09T05:46:34.092Z,14.30
2022-10-09T05:49:06.421Z,14.30
2022-10-09T05:51:38.830Z,14.30
2022-10-09T05:54:08.635Z,14.30
2022-10-09T05:56:40.312Z,14.30
2022-10-09T05:59:13.866Z,14.20
2022-10-09T06:01:46.851Z,14.10
2022-10-09T06:04:19.321Z,14.20
2022-10-09T06:06:49.832Z,14.20
2022-10-09T06:09:25.697Z,14.20
2022-10-09T06:11:56.366Z,14.20
2022-10-09T06:14:26.282Z,14.20
2022-10-09T06:16:55.780Z,14.20
2022-10-09T06:19:25.303Z,14.20
2022-10-09T06:21:54.736Z,14.20
2022-10-09T06:24:29.147Z,14.20
2022-10-09T06:26:58.615Z,14.10
2022-10-09T06:29:28.077Z,14.20
2022-10-09T06:31:57.995Z,14.20
2022-10-09T06:34:27.494Z,14.30
2022-10-09T06:36:57.351Z,14.30
2022-10-09T06:39:26.856Z,14.40
2022-10-09T06:41:56.420Z,14.70
2022-10-09T06:44:27.623Z,14.80
2022-10-09T06:46:57.060Z,15.00
2022-10-09T06:49:26.716Z,15.20
2022-10-09T06:51:56.220Z,15.40
2022-10-09T06:54:25.786Z,15.70
2022-10-09T06:56:55.799Z,16.00
2022-10-09T06:59:25.304Z,16.20
2022-10-09T07:01:56.458Z,16.50
2022-10-09T07:04:26.163Z,16.50
2022-10-09T07:06:55.607Z,16.90
2022-10-09T07:09:25.046Z,17.40
2022-10-09T07:11:54.576Z,17.20
2022-10-09T07:14:25.601Z,17.30
2022-10-09T07:16:55.113Z,17.30
2022-10-09T07:19:23.765Z,17.30
2022-10-09T07:21:56.243Z,17.40
2022-10-09T07:24:25.749Z,18.00
2022-10-09T07:26:58.470Z,18.60
2022-10-09T07:29:27.111Z,19.00
2022-10-09T07:31:57.514Z,19.00
2022-10-09T07:34:26.179Z,19.40
2022-10-09T07:36:56.268Z,19.90
2022-10-09T07:39:25.777Z,19.10
2022-10-09T07:41:55.288Z,18.80
2022-10-09T07:44:24.778Z,18.90
2022-10-09T07:46:54.291Z,19.70
2022-10-09T07:49:23.859Z,19.50
2022-10-09T07:51:53.296Z,19.10
2022-10-09T07:54:22.122Z,18.80
2022-10-09T07:56:51.773Z,18.90
2022-10-09T07:59:21.312Z,18.50
2022-10-09T08:01:50.783Z,18.70
2022-10-09T08:04:20.328Z,18.10
2022-10-09T08:06:49.746Z,18.00
2022-10-09T08:09:19.545Z,18.30
2022-10-09T08:11:48.995Z,18.40
2022-10-09T08:14:19.585Z,18.90
2022-10-09T08:16:49.852Z,18.60
2022-10-09T08:19:19.347Z,19.80
2022-10-09T08:21:48.908Z,19.50
2022-10-09T08:24:18.468Z,18.30
2022-10-09T08:26:47.895Z,18.90
2022-10-09T08:29:18.965Z,18.30
2022-10-09T08:31:48.765Z,18.60
2022-10-09T08:34:19.088Z,18.30
2022-10-09T08:36:48.638Z,18.50
2022-10-09T08:39:18.248Z,18.20
2022-10-09T08:41:58.023Z,18.20
2022-10-09T08:44:30.592Z,18.90
2022-10-09T08:47:05.867Z,18.60
2022-10-09T08:49:41.296Z,19.30
2022-10-09T08:52:22.355Z,19.70
2022-10-09T08:54:53.428Z,19.50
2022-10-09T08:57:23.894Z,19.40
2022-10-09T08:59:53.306Z,19.80
2022-10-09T09:02:31.774Z,19.20
2022-10-09T09:05:25.019Z,19.30
2022-10-09T09:07:57.585Z,19.40
2022-10-09T09:10:35.969Z,20.20
2022-10-09T09:13:37.217Z,20.10
2022-10-09T09:16:22.570Z,20.70
2022-10-09T09:19:15.833Z,20.30
2022-10-09T09:21:52.587Z,20.40
2022-10-09T09:24:25.151Z,20.30
2022-10-09T09:26:57.646Z,20.30
2022-10-09T09:29:28.792Z,20.80
2022-10-09T09:32:02.903Z,20.50
2022-10-09T09:34:42.817Z,21.60
2022-10-09T09:37:13.030Z,21.10
2022-10-09T09:42:16.855Z,21.40
2022-10-09T09:44:52.348Z,21.20
2022-10-09T09:47:24.826Z,21.30
2022-10-09T09:49:56.825Z,21.30
2022-10-09T09:52:29.319Z,22.20
2022-10-09T09:55:00.042Z,22.00
2022-10-09T09:57:35.051Z,21.90
2022-10-09T10:00:19.537Z,22.00
2022-10-09T10:02:49.806Z,21.70
2022-10-09T10:05:27.724Z,21.90
2022-10-09T10:07:57.730Z,22.30
2022-10-09T10:10:28.407Z,21.80
2022-10-09T10:13:01.645Z,22.00
2022-10-09T10:15:33.414Z,21.90
2022-10-09T10:18:08.996Z,22.70
2022-10-09T10:20:56.628Z,23.60
2022-10-09T10:23:35.279Z,23.40
2022-10-09T10:26:11.115Z,23.10
2022-10-09T10:28:52.438Z,22.60
2022-10-09T10:31:37.184Z,22.80
2022-10-09T10:34:09.727Z,22.60
2022-10-09T10:36:39.433Z,23.00
2022-10-09T10:39:11.931Z,23.40
2022-10-09T10:41:48.095Z,22.40
2022-10-09T10:44:26.116Z,23.20
2022-10-09T10:47:01.684Z,23.30
2022-10-09T10:49:33.999Z,22.90
2022-10-09T10:52:27.517Z,22.70
2022-10-09T10:55:11.819Z,22.80
2022-10-09T10:58:02.177Z,23.20
2022-10-09T11:00:34.143Z,23.60
2022-10-09T11:03:21.644Z,23.70
2022-10-09T11:06:00.395Z,23.80
2022-10-09T11:08:47.855Z,24.00
2022-10-09T11:11:39.622Z,23.50
2022-10-09T11:14:33.525Z,24.30
2022-10-09T11:17:11.812Z,24.10
2022-10-09T11:20:01.323Z,24.10
2022-10-09T11:22:36.856Z,24.10
2022-10-09T11:25:25.630Z,24.40
2022-10-09T11:28:10.189Z,24.20
2022-10-09T11:30:42.790Z,24.00
2022-10-09T11:33:15.300Z,23.70
2022-10-09T11:35:47.819Z,23.70
2022-10-09T11:38:32.427Z,23.40
2022-10-09T11:41:05.102Z,23.30
2022-10-09T11:43:49.152Z,23.50
2022-10-09T11:46:24.491Z,23.60
2022-10-09T11:49:12.110Z,24.20
2022-10-09T11:51:54.987Z,24.10
2022-10-09T11:54:27.558Z,23.90
2022-10-09T11:56:59.992Z,23.80
2022-10-09T11:59:33.719Z,24.10
2022-10-09T12:02:18.198Z,24.70
2022-10-09T12:04:56.014Z,24.70
2022-10-09T12:07:32.047Z,24.20
2022-10-09T12:10:10.301Z,24.40
2022-10-09T12:12:39.866Z,24.30
2022-10-09T12:15:15.490Z,24.70
2022-10-09T12:17:50.142Z,24.50
2022-10-09T12:20:26.001Z,24.80
2022-10-09T12:25:46.070Z,24.10
2022-10-09T12:28:24.764Z,24.00
2022-10-09T12:30:54.351Z,24.00
2022-10-09T12:33:45.381Z,24.30
2022-10-09T12:36:17.348Z,24.60
2022-10-09T12:38:46.864Z,24.90
2022-10-09T12:41:22.112Z,24.70
2022-10-09T12:43:54.021Z,24.00
2022-10-09T12:46:37.922Z,24.20
2022-10-09T12:49:10.431Z,24.40
2022-10-09T12:51:39.864Z,24.70
2022-10-09T12:54:10.896Z,24.00
2022-10-09T12:56:41.042Z,24.30
2022-10-09T12:59:13.760Z,24.00
2022-10-09T13:01:43.219Z,24.20
2022-10-09T13:04:31.039Z,24.70
2022-10-09T13:07:03.542Z,24.30
2022-10-09T13:09:39.235Z,24.40
2022-10-09T13:12:11.727Z,23.90
2022-10-09T13:14:47.297Z,24.10
2022-10-09T13:17:37.238Z,24.30
2022-10-09T13:20:22.096Z,24.30
2022-10-09T13:23:02.904Z,24.20
2022-10-09T13:25:41.648Z,24.60
2022-10-09T13:28:16.998Z,24.40
2022-10-09T13:30:46.489Z,24.60
2022-10-09T13:33:17.225Z,24.70
2022-10-09T13:35:47.715Z,24.50
2022-10-09T13:38:20.460Z,24.80
2022-10-09T13:40:50.920Z,24.80
2022-10-09T13:43:23.738Z,24.10
2022-10-09T13:45:53.809Z,24.10
2022-10-09T13:48:23.388Z,24.10
2022-10-09T13:50:53.343Z,24.10
2022-10-09T13:53:22.781Z,23.90
2022-10-09T13:55:55.921Z,24.10
2022-10-09T13:58:25.233Z,24.10
2022-10-09T14:00:55.056Z,24.00
2022-10-09T14:03:24.852Z,24.00
2022-10-09T14:05:59.973Z,24.00
2022-10-09T14:08:29.397Z,23.90
2022-10-09T14:11:01.032Z,23.80
2022-10-09T14:13:30.900Z,24.00
2022-10-09T14:16:00.390Z,23.80
2022-10-09T14:18:29.852Z,23.80
2022-10-09T14:20:59.295Z,24.00
2022-10-09T14:23:28.745Z,23.60
2022-10-09T14:26:01.327Z,23.80
2022-10-09T14:28:30.888Z,23.80
2022-10-09T14:31:00.835Z,23.60
2022-10-09T14:33:30.461Z,23.80
2022-10-09T14:36:10.523Z,23.80
2022-10-09T14:38:43.757Z,23.80
2022-10-09T14:41:14.188Z,24.00
2022-10-09T14:43:43.656Z,24.00
2022-10-09T14:46:17.286Z,23.90
2022-10-09T14:48:51.755Z,23.80
2022-10-09T14:51:23.419Z,23.60
2022-10-09T14:53:58.360Z,23.90
2022-10-09T14:56:28.523Z,23.70
2022-10-09T14:59:03.505Z,23.60
2022-10-09T15:01:34.077Z,23.80
2022-10-09T15:04:07.006Z,23.90
2022-10-09T15:06:37.154Z,23.60
2022-10-09T15:09:06.688Z,23.80
2022-10-09T15:11:37.508Z,23.80
2022-10-09T15:14:07.873Z,23.50
2022-10-09T15:16:38.107Z,23.50
2022-10-09T15:19:09.020Z,23.50
2022-10-09T15:21:38.382Z,23.50
2022-10-09T15:24:07.220Z,23.50
2022-10-09T15:26:39.385Z,23.30
2022-10-09T15:29:09.770Z,23.40
2022-10-09T15:31:40.283Z,23.50
2022-10-09T15:34:13.313Z,23.40
2022-10-09T15:36:44.476Z,23.50
2022-10-09T15:39:15.747Z,23.40
2022-10-09T15:41:47.388Z,23.40
2022-10-09T15:44:21.899Z,23.40
2022-10-09T15:46:51.423Z,23.20
2022-10-09T15:49:20.939Z,23.20
2022-10-09T15:51:50.368Z,23.20
2022-10-09T15:54:19.870Z,23.00
2022-10-09T15:56:49.309Z,23.00
2022-10-09T15:59:19.275Z,23.00
2022-10-09T16:01:50.636Z,22.90
2022-10-09T16:04:20.991Z,22.90
2022-10-09T16:06:50.415Z,22.80
2022-10-09T16:09:21.839Z,22.80
2022-10-09T16:11:53.004Z,22.70
2022-10-09T16:14:22.437Z,22.50
2022-10-09T16:16:51.885Z,22.50
2022-10-09T16:19:21.366Z,22.50
2022-10-09T16:21:50.929Z,22.50
2022-10-09T16:24:20.921Z,22.50
2022-10-09T16:26:51.323Z,22.30
2022-10-09T16:29:20.816Z,22.20
2022-10-09T16:31:50.269Z,22.20
2022-10-09T16:34:19.683Z,22.20
2022-10-09T16:37:26.408Z,22.10
2022-10-09T16:39:53.724Z,22.00
2022-10-09T16:42:23.160Z,21.90
2022-10-09T16:44:52.587Z,21.90
2022-10-09T16:47:22.066Z,21.80
2022-10-09T16:49:51.899Z,21.70
2022-10-09T16:52:21.913Z,21.70
2022-10-09T16:54:51.507Z,21.60
2022-10-09T16:57:20.936Z,21.60
2022-10-09T16:59:50.391Z,21.50
2022-10-09T17:02:19.028Z,21.40
2022-10-09T17:04:48.521Z,21.40
2022-10-09T17:07:17.220Z,21.30
2022-10-09T17:09:46.582Z,21.20
2022-10-09T17:12:16.008Z,21.10
2022-10-09T17:14:47.321Z,21.00
2022-10-09T17:17:16.828Z,20.90
2022-10-09T17:19:46.405Z,20.90
2022-10-09T17:22:15.823Z,20.80
2022-10-09T17:24:45.252Z,20.90
2022-10-09T17:27:14.690Z,20.80
2022-10-09T17:29:44.215Z,20.80
2022-10-09T17:32:13.676Z,20.70
2022-10-09T17:34:43.953Z,20.60
2022-10-09T17:37:13.801Z,20.60
2022-10-09T17:39:45.549Z,20.60
2022-10-09T17:42:14.894Z,20.50
2022-10-09T17:44:44.351Z,20.50
2022-10-09T17:47:13.825Z,20.40
2022-10-09T17:49:43.272Z,20.40
2022-10-09T17:52:15.359Z,20.20
2022-10-09T17:54:43.809Z,20.20
2022-10-09T17:57:13.414Z,20.30
2022-10-09T17:59:42.977Z,20.20
2022-10-09T18:02:12.472Z,20.20
2022-10-09T18:04:41.922Z,20.10
2022-10-09T18:07:11.345Z,20.00
2022-10-09T18:09:40.771Z,20.00
2022-10-09T18:12:10.261Z,19.90
2022-10-09T18:14:39.907Z,19.90
2022-10-09T18:17:09.400Z,19.80
2022-10-09T18:19:38.899Z,19.70
2022-10-09T18:22:08.832Z,19.70
2022-10-09T18:24:38.335Z,19.70
2022-10-09T18:27:07.756Z,19.60
2022-10-09T18:29:38.279Z,19.50
2022-10-09T18:32:07.704Z,19.50
2022-10-09T18:34:39.270Z,19.50
2022-10-09T18:37:08.255Z,19.50
2022-10-09T18:39:37.674Z,19.50
2022-10-09T18:42:07.354Z,19.50
2022-10-09T18:44:39.099Z,19.40
2022-10-09T18:47:13.146Z,19.40
2022-10-09T18:49:45.804Z,19.30
2022-10-09T18:52:15.963Z,19.30
2022-10-09T18:54:48.673Z,19.30
2022-10-09T18:57:17.461Z,19.30
2022-10-09T18:59:47.281Z,19.20
2022-10-09T19:02:17.092Z,19.30
2022-10-09T19:04:46.527Z,19.10
2022-10-09T19:07:15.973Z,19.10
2022-10-09T19:09:45.545Z,19.00
2022-10-09T19:12:16.767Z,19.00
2022-10-09T19:14:46.837Z,18.90
2022-10-09T19:17:16.942Z,18.90
2022-10-09T19:19:46.371Z,18.90
2022-10-09T19:22:21.309Z,18.90
2022-10-09T19:24:48.171Z,18.80
2022-10-09T19:27:17.624Z,18.80
2022-10-09T19:29:47.058Z,18.80
2022-10-09T19:32:22.987Z,18.70
2022-10-09T19:34:50.406Z,18.70
2022-10-09T19:37:22.082Z,18.60
2022-10-09T19:39:52.433Z,18.70
2022-10-09T19:42:23.126Z,18.60
2022-10-09T19:44:54.400Z,18.50
2022-10-09T19:47:24.345Z,18.50
2022-10-09T19:49:53.821Z,18.60
2022-10-09T19:52:23.323Z,18.60
2022-10-09T19:54:52.899Z,18.50
2022-10-09T19:57:22.328Z,18.40
2022-10-09T19:59:51.110Z,18.30
2022-10-09T20:02:20.624Z,18.40
2022-10-09T20:04:50.522Z,18.30
2022-10-09T20:07:19.163Z,18.20
2022-10-09T20:09:47.765Z,18.20
2022-10-09T20:12:18.955Z,18.20
2022-10-09T20:14:48.387Z,18.10
2022-10-09T20:17:18.555Z,18.20
2022-10-09T20:19:48.359Z,18.10
2022-10-09T20:22:17.839Z,18.10
2022-10-09T20:24:47.301Z,18.00
2022-10-09T20:27:17.094Z,18.00
2022-10-09T20:29:46.557Z,18.10
2022-10-09T20:32:18.045Z,18.10
2022-10-09T20:34:47.471Z,18.00
2022-10-09T20:37:16.897Z,18.00
2022-10-09T20:39:46.460Z,18.00
2022-10-09T20:42:18.752Z,18.00
2022-10-09T20:44:48.212Z,18.00
2022-10-09T20:47:17.642Z,18.00
2022-10-09T20:49:51.306Z,17.90
2022-10-09T20:52:22.255Z,17.90
2022-10-09T20:54:51.948Z,17.90
2022-10-09T20:57:21.368Z,17.90
2022-10-09T20:59:50.802Z,17.90
2022-10-09T21:02:20.247Z,17.90
2022-10-09T21:04:49.732Z,17.90
2022-10-09T21:07:19.235Z,17.90
2022-10-09T21:09:48.727Z,17.80
2022-10-09T21:12:18.250Z,17.80
2022-10-09T21:14:47.646Z,17.80
2022-10-09T21:17:18.770Z,17.70
2022-10-09T21:19:51.606Z,17.70
2022-10-09T21:22:23.917Z,17.70
2022-10-09T21:24:53.430Z,17.70
2022-10-09T21:27:22.867Z,17.70
2022-10-09T21:29:52.367Z,17.70
2022-10-09T21:32:23.449Z,17.70
2022-10-09T21:34:52.886Z,17.70
2022-10-09T21:37:22.411Z,17.70
2022-10-09T21:39:52.003Z,17.60
2022-10-09T21:42:21.428Z,17.60
2022-10-09T21:44:50.851Z,17.60
2022-10-09T21:49:47.071Z,17.60
2022-10-09T21:52:16.568Z,17.70
2022-10-09T21:54:46.563Z,17.60
2022-10-09T21:57:16.028Z,17.60
2022-10-09T21:59:45.439Z,17.60
2022-10-09T22:02:14.885Z,17.60
2022-10-09T22:04:44.338Z,17.60
2022-10-09T22:07:13.770Z,17.60
2022-10-09T22:09:43.264Z,17.50
2022-10-09T22:12:12.753Z,17.50
2022-10-09T22:14:42.184Z,17.50
2022-10-09T22:17:11.791Z,17.50
2022-10-09T22:19:41.382Z,17.50
2022-10-09T22:22:10.805Z,17.50
2022-10-09T22:24:40.222Z,17.50
2022-10-09T22:27:09.792Z,17.50
2022-10-09T22:29:39.285Z,17.50
2022-10-09T22:32:10.644Z,17.50
2022-10-09T22:34:40.138Z,17.40
2022-10-09T22:37:09.565Z,17.40
2022-10-09T22:39:38.272Z,17.40
2022-10-09T22:42:07.616Z,17.40
2022-10-09T22:44:37.048Z,17.40
2022-10-09T22:47:06.569Z,17.30
2022-10-09T22:49:36.001Z,17.40
2022-10-09T22:52:05.508Z,17.30
2022-10-09T22:54:35.060Z,17.30
2022-10-09T22:57:04.559Z,17.40
2022-10-09T22:59:34.064Z,17.40
2022-10-09T23:02:04.359Z,17.40
2022-10-09T23:04:33.870Z,17.40
2022-10-09T23:07:03.432Z,17.30
2022-10-09T23:09:34.070Z,17.30
2022-10-09T23:12:03.561Z,17.30
2022-10-09T23:14:33.001Z,17.30
2022-10-09T23:17:02.458Z,17.30
2022-10-09T23:19:31.888Z,17.30
2022-10-09T23:22:01.681Z,17.30
2022-10-09T23:24:31.169Z,17.30
2022-10-09T23:27:00.674Z,17.30
2022-10-09T23:29:30.179Z,17.40
2022-10-09T23:31:59.667Z,17.30
2022-10-09T23:34:29.469Z,17.30
2022-10-09T23:36:58.957Z,17.30
2022-10-09T23:39:28.592Z,17.30
2022-10-09T23:41:58.006Z,17.30
2022-10-09T23:44:27.478Z,17.20
2022-10-09T23:46:57.367Z,17.20
2022-10-09T23:49:26.801Z,17.30
2022-10-09T23:51:56.443Z,17.20
2022-10-09T23:54:25.875Z,17.20
2022-10-09T23:56:55.479Z,17.20
2022-10-09T23:59:25.229Z,17.20
